Time;durP1;ratioP1;P1;durP2;ratioP2;P2;SDS_P1;SDS_P2;PMS_P1;PMS_P2;Temp;Humidity;BMP_temperature;BMP_pressure;BME280_temperature;BME280_humidity;BME280_pressure;Samples;Min_cycle;Max_cycle;Signal;HPM_P1;HPM_P2
2022/04/09 00:01:41;;;;;;;10.27;1.98;;;5.50;70.20;;;;;;4955843;28;20442;-80
2022/04/09 00:04:09;;;;;;;10.07;1.58;;;5.40;70.20;;;;;;4965649;28;20050;-81
2022/04/09 00:06:35;;;;;;;9.85;2.13;;;5.80;70.40;;;;;;4956392;28;20122;-80
2022/04/09 00:09:01;;;;;;;10.25;2.10;;;5.40;70.30;;;;;;4961202;28;20220;-81
2022/04/09 00:11:27;;;;;;;7.65;1.58;;;5.40;70.20;;;;;;4954391;29;20118;-80
2022/04/09 00:13:52;;;;;;;7.18;1.80;;;5.40;70.20;;;;;;4956099;28;20138;-80
2022/04/09 00:16:18;;;;;;;9.48;1.88;;;5.60;70.20;;;;;;4937654;29;20055;-80
2022/04/09 00:18:44;;;;;;;14.43;2.45;;;5.40;70.10;;;;;;4961660;28;20043;-80
2022/04/09 00:21:10;;;;;;;10.05;2.17;;;5.40;70.00;;;;;;4954756;29;20403;-80
2022/04/09 00:23:36;;;;;;;8.02;2.22;;;5.70;70.20;;;;;;4964154;28;20059;-80
2022/04/09 00:26:01;;;;;;;6.97;1.98;;;5.80;70.10;;;;;;4938165;29;20086;-80
2022/04/09 00:28:27;;;;;;;7.93;2.08;;;5.40;69.70;;;;;;4948878;28;20097;-80
2022/04/09 00:30:53;;;;;;;8.45;1.88;;;5.40;69.70;;;;;;4955140;28;20058;-81
2022/04/09 00:33:19;;;;;;;9.25;1.80;;;5.40;69.80;;;;;;4950475;28;20046;-80
2022/04/09 00:35:44;;;;;;;13.68;2.42;;;5.70;70.20;;;;;;4953877;28;20055;-82
2022/04/09 00:38:10;;;;;;;5.60;1.42;;;5.40;70.40;;;;;;4969026;28;20050;-81
2022/04/09 00:40:36;;;;;;;10.75;1.58;;;5.40;70.70;;;;;;4942566;29;20051;-81
2022/04/09 00:43:04;;;;;;;8.23;1.83;;;5.40;70.90;;;;;;4964782;28;20114;-80
2022/04/09 00:45:30;;;;;;;11.27;1.63;;;5.40;70.90;;;;;;4961865;28;20119;-81
2022/04/09 00:47:56;;;;;;;6.47;1.90;;;5.40;70.90;;;;;;4946368;28;20543;-81
2022/04/09 00:50:22;;;;;;;13.02;2.25;;;5.40;71.00;;;;;;4962637;28;20085;-80
2022/04/09 00:52:50;;;;;;;8.50;1.77;;;5.50;71.00;;;;;;4973888;28;20078;-80
2022/04/09 00:55:19;;;;;;;10.85;2.38;;;5.80;71.20;;;;;;4957570;28;20085;-80
2022/04/09 00:57:46;;;;;;;12.45;2.03;;;5.80;71.20;;;;;;4941962;28;20085;-80
2022/04/09 01:00:14;;;;;;;9.88;2.83;;;5.30;70.90;;;;;;4959380;28;20132;-81
2022/04/09 01:02:41;;;;;;;10.75;1.70;;;5.40;70.90;;;;;;4958095;28;20399;-81
2022/04/09 01:05:07;;;;;;;9.48;1.63;;;5.50;71.00;;;;;;4958272;28;20424;-82
2022/04/09 01:07:34;;;;;;;6.63;1.27;;;5.30;70.80;;;;;;4976582;28;20112;-80
2022/04/09 01:10:00;;;;;;;5.78;1.70;;;5.70;71.20;;;;;;4957602;28;20479;-79
2022/04/09 01:12:29;;;;;;;8.73;1.83;;;5.80;71.30;;;;;;4960497;28;20053;-80
2022/04/09 01:14:55;;;;;;;11.57;2.67;;;5.30;71.10;;;;;;4972271;28;20054;-80
2022/04/09 01:17:21;;;;;;;7.05;1.63;;;5.00;70.90;;;;;;4975406;28;20046;-81
2022/04/09 01:19:46;;;;;;;9.75;2.13;;;5.60;71.60;;;;;;4958678;28;20041;-80
2022/04/09 01:22:12;;;;;;;8.73;1.42;;;5.30;71.00;;;;;;4958592;28;20140;-81
2022/04/09 01:24:38;;;;;;;8.85;1.73;;;5.60;71.10;;;;;;4970789;28;20042;-81
2022/04/09 01:27:04;;;;;;;7.60;1.63;;;5.30;71.00;;;;;;4973000;28;20035;-81
2022/04/09 01:29:30;;;;;;;8.52;1.50;;;5.60;71.10;;;;;;4949054;28;20043;-81
2022/04/09 01:31:56;;;;;;;8.43;1.00;;;5.30;70.90;;;;;;4948118;28;20394;-81
2022/04/09 01:34:22;;;;;;;8.68;1.85;;;5.50;71.10;;;;;;4958077;28;20126;-82
2022/04/09 01:36:48;;;;;;;6.03;1.60;;;5.30;71.00;;;;;;4940293;29;20053;-81
2022/04/09 01:39:17;;;;;;;8.02;1.27;;;5.20;71.20;;;;;;4965742;28;20134;-81
2022/04/09 01:41:44;;;;;;;8.82;1.40;;;5.40;71.90;;;;;;4941637;28;20043;-81
2022/04/09 01:44:10;;;;;;;9.40;1.70;;;5.70;71.90;;;;;;4954987;28;20093;-81
2022/04/09 01:46:44;;;;;;;8.15;1.42;;;5.60;72.00;;;;;;4953021;28;20447;-80
2022/04/09 01:49:11;;;;;;;9.35;1.70;;;5.50;72.10;;;;;;4961820;28;20468;-81
2022/04/09 01:51:36;;;;;;;11.38;2.65;;;5.70;72.20;;;;;;4958929;28;20057;-80
2022/04/09 01:54:02;;;;;;;6.25;2.35;;;5.60;72.20;;;;;;4957958;28;20043;-80
2022/04/09 01:56:28;;;;;;;6.07;1.55;;;5.20;71.90;;;;;;4974329;28;20050;-80
2022/04/09 01:58:53;;;;;;;5.18;1.58;;;5.60;72.00;;;;;;4943778;28;20070;-80
2022/04/09 02:01:19;;;;;;;6.80;1.75;;;5.20;71.70;;;;;;4974549;28;20043;-81
2022/04/09 02:03:45;;;;;;;13.27;2.10;;;5.20;71.60;;;;;;4969452;28;20050;-80
2022/04/09 02:06:11;;;;;;;7.13;1.20;;;5.60;71.90;;;;;;4969701;28;20043;-80
2022/04/09 02:08:37;;;;;;;4.18;1.08;;;5.00;71.80;;;;;;4966390;28;20122;-80
2022/04/09 02:11:03;;;;;;;3.88;1.30;;;5.20;71.90;;;;;;4941983;28;20050;-80
2022/04/09 02:13:29;;;;;;;5.53;0.95;;;5.20;71.90;;;;;;4959394;28;20058;-79
2022/04/09 02:15:54;;;;;;;4.70;1.05;;;5.50;72.00;;;;;;4942010;28;20498;-80
2022/04/09 02:18:20;;;;;;;6.70;2.08;;;5.30;71.90;;;;;;4942746;28;20054;-80
2022/04/09 02:20:46;;;;;;;7.57;1.13;;;5.30;72.00;;;;;;4961046;28;20051;-80
2022/04/09 02:23:11;;;;;;;3.90;0.80;;;5.30;72.10;;;;;;4956036;29;20082;-81
2022/04/09 02:25:37;;;;;;;6.72;1.35;;;5.60;72.20;;;;;;4954283;28;20545;-81
2022/04/09 02:28:03;;;;;;;7.38;1.55;;;5.30;72.00;;;;;;4941835;28;20596;-80
2022/04/09 02:30:29;;;;;;;6.28;1.33;;;5.30;71.90;;;;;;4964972;28;20050;-80
2022/04/09 02:32:55;;;;;;;6.63;1.40;;;5.30;71.80;;;;;;4939333;29;20035;-81
2022/04/09 02:35:26;;;;;;;5.13;1.45;;;5.40;71.60;;;;;;4958814;28;20086;-80
2022/04/09 02:37:52;;;;;;;6.45;1.13;;;5.30;71.40;;;;;;4958159;28;20121;-80
2022/04/09 02:40:18;;;;;;;6.22;1.40;;;5.30;71.30;;;;;;4955952;28;20046;-80
2022/04/09 02:42:44;;;;;;;4.95;1.20;;;5.40;71.30;;;;;;4958055;28;20062;-79
2022/04/09 02:45:11;;;;;;;4.18;0.90;;;5.90;71.50;;;;;;4968696;28;20050;-80
2022/04/09 02:47:37;;;;;;;6.10;1.35;;;5.40;71.20;;;;;;4956474;28;20054;-79
2022/04/09 02:50:06;;;;;;;5.65;1.00;;;5.50;71.30;;;;;;4955799;28;20047;-80
2022/04/09 02:52:35;;;;;;;6.32;1.27;;;5.30;71.20;;;;;;4958313;28;20058;-80
2022/04/09 02:55:02;;;;;;;6.95;1.77;;;5.10;70.90;;;;;;4971250;28;20042;-81
2022/04/09 02:57:28;;;;;;;11.23;1.95;;;5.40;71.00;;;;;;4938752;29;20059;-81
2022/04/09 02:59:53;;;;;;;4.38;1.10;;;5.60;71.30;;;;;;4951543;28;20039;-82
2022/04/09 03:02:19;;;;;;;8.75;1.88;;;5.30;71.30;;;;;;4974206;28;20073;-81
2022/04/09 03:04:45;;;;;;;6.93;1.00;;;5.70;71.70;;;;;;4956992;28;20049;-80
2022/04/09 03:07:13;;;;;;;9.63;1.20;;;5.60;72.10;;;;;;4954516;28;20564;-80
2022/04/09 03:09:39;;;;;;;5.25;1.05;;;5.30;71.60;;;;;;4947305;28;20043;-79
2022/04/09 03:12:05;;;;;;;6.70;1.02;;;5.70;71.80;;;;;;4973904;28;20053;-80
2022/04/09 03:14:31;;;;;;;6.68;1.48;;;5.30;71.40;;;;;;4973136;28;20054;-80
2022/04/09 03:16:56;;;;;;;3.35;0.85;;;5.60;71.50;;;;;;4939372;29;20043;-80
2022/04/09 03:19:22;;;;;;;4.60;0.75;;;5.30;71.10;;;;;;4941644;28;20398;-81
2022/04/09 03:21:48;;;;;;;3.35;0.70;;;5.20;70.90;;;;;;4956525;28;20058;-81
2022/04/09 03:24:14;;;;;;;6.90;0.75;;;5.20;70.80;;;;;;4957632;28;20110;-81
2022/04/09 03:26:40;;;;;;;2.72;0.60;;;5.20;70.80;;;;;;4973022;28;20043;-82
2022/04/09 03:29:05;;;;;;;2.17;0.60;;;5.30;70.80;;;;;;4957678;28;20057;-81
2022/04/09 03:31:31;;;;;;;2.45;0.88;;;5.20;70.80;;;;;;4944281;29;20450;-81
2022/04/09 03:33:57;;;;;;;3.53;0.57;;;5.20;70.90;;;;;;4941347;28;20538;-81
2022/04/09 03:36:23;;;;;;;3.20;0.65;;;5.00;70.90;;;;;;4957202;28;20427;-81
2022/04/09 03:38:48;;;;;;;3.58;0.90;;;5.60;71.20;;;;;;4973484;28;20058;-81
2022/04/09 03:41:14;;;;;;;4.35;0.88;;;5.70;71.20;;;;;;4953954;29;20122;-80
2022/04/09 03:43:40;;;;;;;6.35;1.25;;;5.20;70.80;;;;;;4938523;29;20142;-81
2022/04/09 03:46:06;;;;;;;5.50;0.98;;;5.20;70.60;;;;;;4953713;29;20039;-82
2022/04/09 03:48:32;;;;;;;6.07;1.27;;;5.70;70.80;;;;;;4938743;29;20058;-81
2022/04/09 03:50:57;;;;;;;6.43;1.10;;;5.20;70.60;;;;;;4940946;28;20043;-81
2022/04/09 03:53:23;;;;;;;4.95;1.10;;;5.50;70.70;;;;;;4956712;28;20047;-80
2022/04/09 03:55:50;;;;;;;3.88;1.08;;;5.30;70.60;;;;;;4956064;28;20122;-81
2022/04/09 03:58:16;;;;;;;4.72;0.90;;;5.00;70.50;;;;;;4952173;29;20047;-81
2022/04/09 04:00:47;;;;;;;2.85;0.60;;;5.40;71.40;;;;;;4955312;28;20039;-82
2022/04/09 04:03:14;;;;;;;3.55;1.15;;;4.70;70.60;;;;;;4966786;28;20064;-80
2022/04/09 04:05:40;;;;;;;5.45;1.02;;;5.40;71.10;;;;;;4973190;28;20054;-80
2022/04/09 04:08:09;;;;;;;5.07;1.08;;;5.50;71.30;;;;;;4960066;28;20039;-80
2022/04/09 04:10:37;;;;;;;6.93;0.88;;;5.10;71.00;;;;;;4953256;28;20038;-80
2022/04/09 04:13:07;;;;;;;5.80;0.85;;;5.10;71.00;;;;;;4972366;28;20039;-80
2022/04/09 04:15:36;;;;;;;6.40;1.13;;;5.30;71.10;;;;;;4966333;28;20050;-80
2022/04/09 04:18:02;;;;;;;4.65;1.00;;;5.60;71.20;;;;;;4955545;29;20582;-80
2022/04/09 04:20:28;;;;;;;3.00;0.80;;;5.20;70.80;;;;;;4959745;28;20411;-80
2022/04/09 04:22:54;;;;;;;5.15;0.90;;;5.50;70.90;;;;;;4959104;28;20054;-81
2022/04/09 04:25:20;;;;;;;4.15;0.93;;;5.20;70.70;;;;;;4960503;28;20078;-81
2022/04/09 04:27:49;;;;;;;7.55;1.15;;;5.20;70.60;;;;;;4958717;28;20483;-81
2022/04/09 04:30:15;;;;;;;3.58;0.90;;;5.30;70.70;;;;;;4961109;28;20487;-81
2022/04/09 04:32:42;;;;;;;6.38;1.27;;;5.90;70.80;;;;;;4963758;28;20051;-80
2022/04/09 04:35:08;;;;;;;8.20;1.52;;;5.50;70.50;;;;;;4953073;28;20092;-81
2022/04/09 04:37:43;;;;;;;7.18;1.02;;;5.40;70.30;;;;;;4975155;28;20062;-81
2022/04/09 04:40:10;;;;;;;6.15;1.15;;;5.40;70.20;;;;;;4945060;28;20432;-81
2022/04/09 04:42:36;;;;;;;9.50;1.73;;;5.80;70.40;;;;;;4966768;28;20051;-81
2022/04/09 04:45:04;;;;;;;10.40;1.60;;;5.30;70.20;;;;;;4930790;28;20506;-80
2022/04/09 04:47:30;;;;;;;11.75;1.60;;;5.20;70.40;;;;;;4952307;29;20080;-80
2022/04/09 04:49:55;;;;;;;8.27;1.48;;;5.20;70.60;;;;;;4958473;29;20071;-81
2022/04/09 04:52:21;;;;;;;4.97;1.20;;;5.30;70.80;;;;;;4942409;29;20051;-81
2022/04/09 04:54:47;;;;;;;9.65;1.77;;;5.20;70.80;;;;;;4958504;29;20043;-81
2022/04/09 04:57:13;;;;;;;7.20;1.58;;;5.10;71.10;;;;;;4955179;28;20171;-81
2022/04/09 04:59:38;;;;;;;6.47;1.23;;;5.60;71.00;;;;;;4958170;29;20070;-81
2022/04/09 05:02:05;;;;;;;5.88;1.30;;;5.20;70.80;;;;;;4944507;28;20095;-80
2022/04/09 05:04:30;;;;;;;6.93;1.80;;;5.10;70.70;;;;;;4949813;28;20043;-81
2022/04/09 05:06:56;;;;;;;7.40;1.15;;;5.60;71.10;;;;;;4952362;28;20035;-80
2022/04/09 05:09:22;;;;;;;9.23;3.15;;;5.10;70.90;;;;;;4959645;28;20047;-81
2022/04/09 05:11:48;;;;;;;5.45;1.30;;;5.30;71.00;;;;;;4959416;28;20537;-80
2022/04/09 05:14:15;;;;;;;10.38;2.10;;;5.10;71.00;;;;;;4975643;28;20046;-80
2022/04/09 05:16:40;;;;;;;12.68;1.80;;;5.30;71.20;;;;;;4975690;28;20117;-80
2022/04/09 05:19:06;;;;;;;10.05;1.35;;;5.30;71.70;;;;;;4959005;28;20480;-81
2022/04/09 05:21:32;;;;;;;7.57;1.30;;;5.00;71.10;;;;;;4940494;29;20087;-81
2022/04/09 05:23:58;;;;;;;6.50;1.10;;;5.00;71.10;;;;;;4944915;29;20399;-81
2022/04/09 05:26:23;;;;;;;9.82;1.70;;;5.40;71.60;;;;;;4925216;29;20058;-81
2022/04/09 05:28:53;;;;;;;6.85;1.48;;;4.90;71.40;;;;;;4942510;29;20086;-81
2022/04/09 05:31:22;;;;;;;6.63;1.27;;;5.20;71.70;;;;;;4957902;29;20047;-81
2022/04/09 05:33:48;;;;;;;7.88;1.50;;;5.00;71.70;;;;;;4955975;29;20396;-80
2022/04/09 05:36:13;;;;;;;7.60;1.50;;;5.60;72.10;;;;;;4956413;29;20047;-80
2022/04/09 05:38:39;;;;;;;5.13;1.10;;;5.10;72.30;;;;;;4957537;28;20475;-80
2022/04/09 05:41:04;;;;;;;9.05;1.50;;;5.10;72.00;;;;;;4971030;28;20054;-81
2022/04/09 05:43:30;;;;;;;10.68;1.88;;;5.20;72.20;;;;;;4952372;29;20105;-80
2022/04/09 05:45:57;;;;;;;8.80;1.92;;;5.80;72.50;;;;;;4957578;29;20468;-81
2022/04/09 05:48:23;;;;;;;13.50;2.67;;;5.30;72.10;;;;;;4949311;28;20424;-81
2022/04/09 05:50:48;;;;;;;12.48;1.70;;;5.40;72.10;;;;;;4941040;29;20158;-80
2022/04/09 05:53:14;;;;;;;8.27;1.65;;;5.40;72.00;;;;;;4930913;28;20047;-81
2022/04/09 05:55:40;;;;;;;8.10;1.42;;;5.40;72.00;;;;;;4948275;29;20134;-81
2022/04/09 05:58:05;;;;;;;10.13;1.65;;;5.70;72.60;;;;;;4939152;28;20127;-81
2022/04/09 06:00:32;;;;;;;9.18;1.50;;;5.40;72.10;;;;;;4958367;28;20054;-81
2022/04/09 06:02:58;;;;;;;9.93;2.22;;;5.50;72.20;;;;;;4954940;28;20043;-81
2022/04/09 06:05:24;;;;;;;15.95;2.05;;;5.50;72.20;;;;;;4958724;28;20085;-82
2022/04/09 06:07:49;;;;;;;6.78;1.30;;;5.50;72.30;;;;;;4959516;28;22000;-81
2022/04/09 06:10:15;;;;;;;12.27;2.17;;;5.30;72.20;;;;;;4973584;28;20039;-80
2022/04/09 06:12:41;;;;;;;7.75;1.55;;;6.00;72.70;;;;;;4939698;28;20051;-80
2022/04/09 06:15:07;;;;;;;7.97;1.70;;;5.60;72.70;;;;;;4958176;28;20130;-81
2022/04/09 06:17:35;;;;;;;14.45;1.80;;;5.80;73.00;;;;;;4958777;28;20050;-81
2022/04/09 06:20:02;;;;;;;8.68;1.50;;;6.50;73.20;;;;;;4939100;29;20151;-82
2022/04/09 06:22:27;;;;;;;10.07;1.60;;;6.50;73.00;;;;;;4957253;28;20055;-82
2022/04/09 06:24:53;;;;;;;8.80;1.67;;;6.60;72.70;;;;;;4957627;28;20138;-81
2022/04/09 06:27:19;;;;;;;9.90;1.85;;;6.50;72.30;;;;;;4956564;28;20467;-81
2022/04/09 06:29:44;;;;;;;7.57;1.90;;;6.70;71.70;;;;;;4948470;28;20090;-81
2022/04/09 06:32:10;;;;;;;7.63;1.45;;;7.10;71.50;;;;;;4957540;28;20035;-82
2022/04/09 06:34:36;;;;;;;9.40;1.17;;;7.40;71.20;;;;;;4948905;28;20407;-82
2022/04/09 06:37:01;;;;;;;7.07;1.33;;;7.30;70.50;;;;;;4975700;28;20047;-82
2022/04/09 06:39:27;;;;;;;9.90;1.73;;;7.50;70.00;;;;;;4957037;28;20046;-81
2022/04/09 06:41:53;;;;;;;8.60;1.40;;;7.70;69.10;;;;;;4975855;28;20182;-82
2022/04/09 06:44:19;;;;;;;9.43;1.60;;;8.20;68.80;;;;;;4969350;28;20046;-82
2022/04/09 06:46:46;;;;;;;6.75;1.60;;;8.50;68.60;;;;;;4958501;28;20485;-82
2022/04/09 06:49:15;;;;;;;12.05;2.70;;;8.60;68.40;;;;;;4957018;28;20394;-82
2022/04/09 06:51:42;;;;;;;10.70;2.10;;;8.70;68.00;;;;;;4957972;28;20069;-82
2022/04/09 06:54:09;;;;;;;8.30;1.77;;;8.40;67.70;;;;;;4955260;28;20045;-82
2022/04/09 06:56:36;;;;;;;5.45;1.45;;;8.30;67.10;;;;;;4956738;28;20877;-82
2022/04/09 06:59:06;;;;;;;8.48;1.67;;;8.80;67.10;;;;;;4939906;28;20533;-81
2022/04/09 07:01:32;;;;;;;5.32;1.30;;;8.30;66.90;;;;;;4975486;28;20498;-82
2022/04/09 07:03:57;;;;;;;8.45;1.85;;;8.30;67.10;;;;;;4954458;28;20088;-82
2022/04/09 07:06:23;;;;;;;9.38;1.88;;;8.20;67.30;;;;;;4952073;28;20110;-81
2022/04/09 07:08:49;;;;;;;14.13;1.92;;;8.90;67.60;;;;;;4940509;28;20418;-82
2022/04/09 07:11:15;;;;;;;6.13;1.45;;;8.90;67.20;;;;;;4954000;28;20042;-82
2022/04/09 07:13:41;;;;;;;10.13;1.80;;;9.00;67.20;;;;;;4964348;28;20051;-85
2022/04/09 07:16:07;;;;;;;10.05;2.28;;;9.30;67.40;;;;;;4952920;28;20042;-85
2022/04/09 07:18:33;;;;;;;6.05;1.13;;;9.00;66.80;;;;;;4971888;28;20046;-83
2022/04/09 07:20:59;;;;;;;7.30;1.50;;;9.30;66.30;;;;;;4955248;28;20058;-85
2022/04/09 07:23:24;;;;;;;6.97;1.27;;;9.20;65.30;;;;;;4956394;28;20105;-84
2022/04/09 07:25:50;;;;;;;7.88;1.08;;;9.40;65.10;;;;;;4941523;28;20126;-84
2022/04/09 07:28:16;;;;;;;7.15;1.77;;;9.40;64.60;;;;;;4957270;28;20495;-85
2022/04/09 07:30:43;;;;;;;7.88;2.00;;;9.30;64.00;;;;;;4954393;28;20121;-85
2022/04/09 07:33:09;;;;;;;10.10;1.73;;;10.00;64.50;;;;;;4956449;28;20153;-84
2022/04/09 07:35:35;;;;;;;8.85;2.03;;;9.90;64.30;;;;;;4955009;28;20530;-85
2022/04/09 07:38:01;;;;;;;8.30;1.98;;;10.00;64.00;;;;;;4957752;28;20038;-85
2022/04/09 07:40:30;;;;;;;7.90;1.40;;;9.50;63.20;;;;;;4949388;29;20047;-86
2022/04/09 07:42:58;;;;;;;6.03;1.30;;;10.20;62.80;;;;;;4953921;28;20280;-86
2022/04/09 07:45:25;;;;;;;7.20;1.23;;;10.40;63.00;;;;;;4955644;28;20047;-85
2022/04/09 07:47:55;;;;;;;7.63;1.02;;;10.40;62.70;;;;;;4970816;28;20093;-85
2022/04/09 07:50:21;;;;;;;5.35;1.25;;;10.50;62.10;;;;;;4959783;28;20517;-84
2022/04/09 07:52:46;;;;;;;8.27;1.55;;;10.40;61.60;;;;;;4956610;28;20035;-86
2022/04/09 07:55:17;;;;;;;6.93;1.13;;;10.40;61.00;;;;;;4945118;28;20093;-87
2022/04/09 07:57:50;;;;;;;5.88;1.77;;;10.50;60.80;;;;;;4938765;29;20384;-85
2022/04/09 08:00:20;;;;;;;5.55;0.80;;;10.80;60.30;;;;;;4951042;28;20053;-86
2022/04/09 08:02:54;;;;;;;6.78;1.73;;;10.70;59.30;;;;;;4943745;28;20499;-87
2022/04/09 08:05:29;;;;;;;6.18;1.30;;;10.70;59.30;;;;;;4949568;28;20094;-84
2022/04/09 08:07:59;;;;;;;12.10;1.85;;;10.80;58.90;;;;;;4928427;29;20047;-87
2022/04/09 08:10:27;;;;;;;5.55;1.58;;;10.80;59.20;;;;;;4949651;28;20372;-85
2022/04/09 08:23:37;;;;;;;7.72;1.30;;;10.90;58.20;;;;;;4877676;29;20132;-88
2022/04/09 08:26:46;;;;;;;8.57;0.98;;;11.30;58.40;;;;;;4876114;29;20089;-88
2022/04/09 08:29:59;;;;;;;5.88;1.30;;;10.70;58.10;;;;;;5520877;23;20022;-90
2022/04/09 08:32:34;;;;;;;6.85;1.27;;;11.00;58.20;;;;;;4881009;29;20129;-88
2022/04/09 08:35:22;;;;;;;6.30;1.10;;;11.30;58.40;;;;;;4875267;29;20084;-89
2022/04/09 08:38:13;;;;;;;5.03;0.80;;;10.90;57.50;;;;;;4893878;29;20408;-87
2022/04/09 08:41:15;;;;;;;2.85;0.60;;;10.80;57.20;;;;;;4895879;29;20514;-87
2022/04/09 08:44:19;;;;;;;2.10;0.40;;;10.70;55.40;;;;;;4895527;29;20532;-87
2022/04/09 08:47:09;;;;;;;3.00;0.43;;;10.60;55.60;;;;;;4878877;29;20443;-93
2022/04/09 08:49:53;;;;;;;4.63;0.57;;;10.40;54.80;;;;;;4874161;29;20104;-87
2022/04/09 08:52:19;;;;;;;5.43;1.27;;;10.30;55.30;;;;;;4871131;29;20121;-84
2022/04/09 08:54:44;;;;;;;7.07;1.00;;;10.30;57.00;;;;;;4892360;29;20513;-82
2022/04/09 08:57:13;;;;;;;5.72;0.68;;;10.30;57.80;;;;;;4882130;29;20493;-84
2022/04/09 08:59:39;;;;;;;4.03;0.60;;;10.70;57.80;;;;;;4882789;29;20568;-84
2022/04/09 09:02:05;;;;;;;6.18;1.48;;;10.80;57.10;;;;;;4886563;29;20048;-83
2022/04/09 09:04:31;;;;;;;5.35;0.88;;;10.60;57.10;;;;;;4897745;29;20493;-86
2022/04/09 09:07:20;;;;;;;4.55;0.80;;;10.50;57.00;;;;;;4885855;29;20123;-83
2022/04/09 09:09:46;;;;;;;6.70;1.27;;;10.80;56.80;;;;;;4917696;29;20143;-85
2022/04/09 09:12:12;;;;;;;5.95;1.02;;;10.80;56.30;;;;;;4917129;29;20056;-81
2022/04/09 09:14:46;;;;;;;5.88;1.77;;;10.80;56.00;;;;;;4918063;29;20107;-84
2022/04/09 09:17:11;;;;;;;6.15;2.63;;;11.20;55.50;;;;;;4904990;29;20393;-81
2022/04/09 09:19:47;;;;;;;8.40;2.92;;;11.00;54.60;;;;;;4918244;29;20056;-84
2022/04/09 09:22:14;;;;;;;8.18;1.95;;;10.90;54.70;;;;;;4912032;29;20560;-82
2022/04/09 09:24:43;;;;;;;5.93;2.22;;;11.30;55.00;;;;;;4913977;29;20131;-84
2022/04/09 09:27:09;;;;;;;4.32;1.30;;;10.70;55.60;;;;;;4906775;29;21668;-84
2022/04/09 09:29:42;;;;;;;5.18;1.23;;;11.00;55.60;;;;;;4902635;29;20083;-85
2022/04/09 09:32:08;;;;;;;5.15;1.13;;;11.10;55.10;;;;;;4932910;29;20047;-79
2022/04/09 09:34:34;;;;;;;5.30;1.38;;;11.10;55.30;;;;;;4936033;29;20056;-79
2022/04/09 09:36:59;;;;;;;5.65;1.42;;;11.20;56.10;;;;;;4935296;29;20048;-80
2022/04/09 09:39:26;;;;;;;7.25;1.33;;;11.30;55.70;;;;;;4920117;29;20056;-81
2022/04/09 09:42:01;;;;;;;9.27;2.15;;;11.30;55.50;;;;;;4936093;29;20107;-78
2022/04/09 09:44:32;;;;;;;7.82;2.15;;;11.40;55.20;;;;;;4929824;29;20051;-77
2022/04/09 09:47:08;;;;;;;8.05;2.30;;;11.10;54.60;;;;;;4917681;29;20119;-78
2022/04/09 09:49:38;;;;;;;10.80;2.60;;;10.80;54.60;;;;;;4923013;29;20051;-77
2022/04/09 09:52:09;;;;;;;7.57;1.98;;;10.70;55.50;;;;;;4922448;29;20071;-77
2022/04/09 09:54:59;;;;;;;9.35;2.08;;;10.60;56.30;;;;;;4928301;29;20142;-79
2022/04/09 09:57:28;;;;;;;6.82;1.30;;;10.70;55.90;;;;;;4926025;29;20508;-78
2022/04/09 09:59:59;;;;;;;8.75;2.00;;;10.70;55.50;;;;;;4925011;29;20048;-78
2022/04/09 10:02:25;;;;;;;9.15;1.48;;;10.60;55.50;;;;;;4931969;29;20044;-77
2022/04/09 10:04:52;;;;;;;7.38;1.50;;;10.80;55.10;;;;;;4936828;29;20039;-78
2022/04/09 10:07:19;;;;;;;9.07;2.22;;;10.90;55.70;;;;;;4934636;29;20052;-80
2022/04/09 10:09:45;;;;;;;9.52;1.88;;;10.80;56.00;;;;;;4925847;29;20048;-80
2022/04/09 10:12:20;;;;;;;5.80;1.52;;;10.60;55.80;;;;;;4934645;29;20055;-80
2022/04/09 10:14:57;;;;;;;8.68;2.00;;;10.70;55.90;;;;;;4922671;29;20047;-78
2022/04/09 10:17:24;;;;;;;8.50;1.60;;;10.60;56.10;;;;;;4935447;29;20488;-80
2022/04/09 10:19:57;;;;;;;6.65;1.83;;;11.00;56.70;;;;;;4904486;29;20048;-78
2022/04/09 10:22:42;;;;;;;10.05;1.80;;;10.60;57.10;;;;;;4918744;29;20421;-80
2022/04/09 10:25:08;;;;;;;5.63;1.63;;;10.50;58.00;;;;;;4920425;29;20040;-80
2022/04/09 10:27:39;;;;;;;6.25;1.92;;;10.50;59.00;;;;;;4932839;29;20056;-80
2022/04/09 10:30:17;;;;;;;6.22;1.30;;;10.60;58.40;;;;;;4945510;29;20175;-80
2022/04/09 10:33:05;;;;;;;4.90;1.40;;;10.40;57.70;;;;;;4953949;29;20058;-79
2022/04/09 10:35:39;;;;;;;4.90;1.45;;;10.00;58.30;;;;;;4940042;29;20119;-78
2022/04/09 10:38:12;;;;;;;5.28;1.00;;;9.70;59.40;;;;;;4939628;29;20137;-78
2022/04/09 10:41:03;;;;;;;4.78;0.82;;;9.60;60.50;;;;;;4926506;29;20051;-79
2022/04/09 10:43:42;;;;;;;9.90;1.77;;;9.20;62.40;;;;;;4861786;29;20053;-83
2022/04/09 10:46:16;;;;;;;3.15;0.80;;;9.30;63.40;;;;;;4863925;29;20075;-79
2022/04/09 10:48:42;;;;;;;6.53;1.30;;;9.40;63.80;;;;;;4863022;29;20076;-80
2022/04/09 10:51:18;;;;;;;5.13;1.13;;;9.10;65.10;;;;;;4862419;29;20084;-78
2022/04/09 10:53:51;;;;;;;6.38;1.52;;;9.20;64.80;;;;;;4860823;29;20047;-79
2022/04/09 10:56:25;;;;;;;5.07;1.23;;;9.30;63.40;;;;;;4859006;29;20049;-80
2022/04/09 10:59:28;;;;;;;3.65;0.80;;;9.30;62.50;;;;;;4879446;29;20124;-79
2022/04/09 11:01:54;;;;;;;4.63;1.30;;;9.20;61.80;;;;;;4852810;29;20106;-79
2022/04/09 11:04:32;;;;;;;4.47;1.00;;;9.20;62.20;;;;;;4848275;29;20060;-78
2022/04/09 11:07:10;;;;;;;2.53;0.80;;;9.10;62.20;;;;;;4858567;29;20056;-77
2022/04/09 11:09:58;;;;;;;5.13;1.00;;;9.10;62.10;;;;;;4877024;29;20041;-82
2022/04/09 11:13:10;;;;;;;9.65;1.50;;;9.10;63.20;;;;;;4862326;29;20524;-85
2022/04/09 11:18:20;;;;;;;6.70;1.42;;;9.20;65.00;;;;;;4962104;23;20050;-88
2022/04/09 11:20:45;;;;;;;5.07;1.35;;;9.60;65.20;;;;;;4936809;29;20399;-83
2022/04/09 11:23:32;;;;;;;;;;;;;;;;;;;;;
2022/04/09 11:25:58;;;;;;;5.00;0.70;;;9.10;62.10;;;;;;4932075;29;20062;-79
2022/04/09 11:28:24;;;;;;;4.47;0.77;;;8.90;62.30;;;;;;4954834;29;20100;-80
2022/04/09 11:31:00;;;;;;;7.43;0.60;;;9.20;62.60;;;;;;4954702;29;20563;-81
2022/04/09 11:33:26;;;;;;;3.72;0.80;;;8.40;62.40;;;;;;4937214;29;20039;-81
2022/04/09 11:35:56;;;;;;;7.13;0.90;;;8.20;63.10;;;;;;4937400;29;20090;-81
2022/04/09 11:38:25;;;;;;;4.50;0.88;;;8.10;64.40;;;;;;4939430;29;20039;-81
2022/04/09 11:40:52;;;;;;;2.90;0.82;;;8.00;65.20;;;;;;4937474;29;20491;-81
2022/04/09 11:43:19;;;;;;;3.28;0.52;;;7.80;65.40;;;;;;4922204;29;20135;-82
2022/04/09 11:45:45;;;;;;;5.10;0.80;;;8.10;66.10;;;;;;4928705;29;20044;-82
2022/04/09 11:48:19;;;;;;;5.63;0.80;;;7.80;66.20;;;;;;4933273;29;20154;-81
2022/04/09 11:50:57;;;;;;;5.50;0.90;;;7.80;66.70;;;;;;4937372;29;20063;-84
2022/04/09 11:53:24;;;;;;;4.75;0.90;;;7.80;66.70;;;;;;4953898;29;20039;-81
2022/04/09 11:56:00;;;;;;;3.80;0.73;;;7.80;66.70;;;;;;4935569;29;20112;-81
2022/04/09 11:58:42;;;;;;;5.95;0.93;;;8.10;66.10;;;;;;4918862;29;20082;-81
2022/04/09 12:01:14;;;;;;;4.13;0.65;;;7.80;66.10;;;;;;4934756;29;20530;-80
2022/04/09 12:03:39;;;;;;;3.08;0.70;;;8.40;67.00;;;;;;4937391;29;20063;-81
2022/04/09 12:06:16;;;;;;;4.32;0.88;;;8.40;67.60;;;;;;4936897;29;20043;-81
2022/04/09 12:08:57;;;;;;;4.35;1.15;;;8.00;68.10;;;;;;4936384;29;20043;-81
2022/04/09 12:11:53;;;;;;;6.00;1.00;;;8.50;68.90;;;;;;4943648;28;20054;-84
2022/04/09 12:14:20;;;;;;;4.38;0.98;;;8.20;68.10;;;;;;4931753;28;20058;-82
2022/04/09 12:16:46;;;;;;;3.38;0.65;;;8.60;67.20;;;;;;4905731;29;1108622;-79
2022/04/09 12:19:13;;;;;;;5.15;0.82;;;8.30;65.40;;;;;;4955309;29;20515;-81
2022/04/09 12:21:39;;;;;;;6.13;1.13;;;8.60;65.50;;;;;;4938165;29;20047;-81
2022/04/09 12:24:10;;;;;;;2.72;1.00;;;7.90;65.70;;;;;;4938223;29;20078;-80
2022/04/09 12:26:41;;;;;;;2.88;0.75;;;7.70;66.10;;;;;;4938164;28;20047;-82
2022/04/09 12:29:09;;;;;;;6.10;0.80;;;7.50;66.20;;;;;;4922702;29;20050;-82
2022/04/09 12:31:36;;;;;;;5.20;1.25;;;7.40;66.70;;;;;;4938240;29;20051;-81
2022/04/09 12:34:02;;;;;;;2.92;1.00;;;7.20;67.40;;;;;;4939401;29;20122;-82
2022/04/09 12:36:28;;;;;;;6.28;0.90;;;7.80;68.40;;;;;;4958308;29;20039;-80
2022/04/09 12:38:54;;;;;;;5.00;0.85;;;7.30;69.10;;;;;;4958700;29;20049;-82
2022/04/09 12:41:20;;;;;;;6.00;0.90;;;7.90;70.20;;;;;;4958175;29;20047;-79
2022/04/09 12:43:47;;;;;;;3.30;0.95;;;7.50;70.80;;;;;;4958603;29;20846;-81
2022/04/09 12:46:18;;;;;;;6.25;1.15;;;8.00;70.70;;;;;;4937386;29;20050;-81
2022/04/09 12:48:51;;;;;;;5.82;1.45;;;7.80;71.00;;;;;;4941447;29;20435;-81
2022/04/09 12:51:20;;;;;;;5.22;0.93;;;7.90;71.50;;;;;;4938393;29;20043;-81
2022/04/09 12:53:51;;;;;;;3.45;0.80;;;8.00;71.30;;;;;;4940427;29;20134;-82
2022/04/09 12:56:18;;;;;;;2.67;0.60;;;8.20;70.90;;;;;;4941139;29;20051;-81
2022/04/09 12:58:45;;;;;;;5.82;1.15;;;8.70;70.30;;;;;;4941208;29;20089;-81
2022/04/09 13:01:13;;;;;;;5.43;1.17;;;8.80;69.10;;;;;;4941004;29;20047;-80
2022/04/09 13:03:39;;;;;;;5.60;1.08;;;8.20;66.30;;;;;;4940228;29;20047;-81
2022/04/09 13:06:06;;;;;;;5.18;1.17;;;8.50;65.90;;;;;;4941139;29;20511;-81
2022/04/09 13:08:32;;;;;;;4.38;0.88;;;9.20;66.40;;;;;;4925215;29;20047;-82
2022/04/09 13:10:58;;;;;;;4.40;1.00;;;8.40;66.00;;;;;;4939424;29;20055;-80
2022/04/09 13:13:24;;;;;;;5.20;1.27;;;8.80;65.00;;;;;;4947734;29;20044;-81
2022/04/09 13:15:50;;;;;;;10.15;2.35;;;9.20;64.90;;;;;;4940543;29;20051;-81
2022/04/09 13:18:16;;;;;;;5.38;1.10;;;9.10;64.80;;;;;;4957243;29;20134;-82